You are not logged in, Click here to log in
深圳寶安國際機場 / ZGSZ 中國廣東省深圳市寶安區
ICAO: ZGSZ Country: 中國廣東省深圳市寶安區
Latitude: 22.6368 Longitude: 113.815
Total Arrivals: 37 Total Departures: 31
Latest Arrival: CI527 (RCTP-ZGSZ)CHU. CHUHAO Latest Departure: CI528 (ZGSZ-RCTP)CHU. CHUHAO
Scenery:
METAR : ZGSZ 110300Z 17009MPS 9999 FEW020 32/27 Q1008 NOSIG

深圳寶安國際機場

You are accessing this site from IP address 34.229.119.29. Virtual Airline. CMS by phpVMS.Website designed by Zumeweb and edited by Theo Bearman.
There is 1 User(s) Online: | Lun Wang | and 10 Guest(s) Online.
All information on this site is for fight simulation purposes only. This site is for flight logging for pilots of Virtual Airline&模擬飛行論壇 FlySim only.